Osage River (Missouri), Taberville (06918250)

StateMissouriLatestPoor (488 cfs)
RiverOsage RiverRatingObservedEstimated
Updated2020-08-11 19:45 (54 minutes ago)Flood - The river is flooding. Obstacles can be treacherous or deadly. The river should be avoided at this stage for casual trips and definitely for the inexperienced. Trips should be attempted only with protective gear and equipment.Flood(none)38403
Discharge488 cfs (median: 819 cfs)High - The river is high and potentially dangerous, especially for the young and / or inexperienced. Normal stream obstacles are sometimes difficult to navigate. Extended distances can be attempted, but canoe travel may not be advisable.High(none)7197
Height10.92 feetGood - Conditions are ideal for a canoe or kayak. Boats typically will drag on fewer than one-quarter of riffles, if at all, and portages are unnecessary or rare. Normal float lengths can be attempted without a problem.Good(none)4305
TrendFalling (falling over 24 hours)Low - River is low but can still be floated. Some riffles are okay but most come with significant dragging and might need a portage. Float lengths should be reduced to accommodate low flow, dragging, and portages.Low(none)1188
USGSExternal icon USGS Site (External icon Google Maps)Poor - River is too low to float comfortably. Most or all riffles will drag or must be portaged and some obstacles (such as slick shelf rock) cause undue problems. Avoid the river at this stage for casual paddling trips.Poor(none)50

Trending Data

Plot Image

Trips for Osage River (Missouri), Taberville (06918250)

DateStartEndDistanceConditionDischargeHeightFishingDetails

A total of 0 rows are displayed.

Condition Descriptions

Fishing Conditions

Fish Species

Notes

Classic Trip List

The classic River Trips application is still available for use. It is updated with the new system using a data retrofit. It is no longer maintained. The original River Trips application is no longer updated (as of 1 Dec 2016) but can be checked for errors or for the condition of the data before it was converted to the new system.

Gauge Data Table

ObservationHeightDischargeMaximum
Discharge
Minimum
Discharge
Mean
Discharge
P05P10P20P25P50
(Median)
P75P80P90P95
2020-08-11 19:45 10.92 488 27600 (2013) 50 (2012) 5430 50 95 104 819 8870 15000 27600
2020-08-11 18:45 10.98 511 27600 (2013) 50 (2012) 5430 50 95 104 819 8870 15000 27600
2020-08-11 17:45 11.04 535 27600 (2013) 50 (2012) 5430 50 95 104 819 8870 15000 27600
2020-08-11 16:45 11.08 551 27600 (2013) 50 (2012) 5430 50 95 104 819 8870 15000 27600
2020-08-11 15:45 11.13 572 27600 (2013) 50 (2012) 5430 50 95 104 819 8870 15000 27600
2020-08-11 14:45 11.21 609 27600 (2013) 50 (2012) 5430 50 95 104 819 8870 15000 27600
2020-08-11 13:45 11.22 613 27600 (2013) 50 (2012) 5430 50 95 104 819 8870 15000 27600
2020-08-11 12:45 11.28 643 27600 (2013) 50 (2012) 5430 50 95 104 819 8870 15000 27600
2020-08-11 11:45 11.28 643 27600 (2013) 50 (2012) 5430 50 95 104 819 8870 15000 27600
2020-08-11 10:45 11.30 652 27600 (2013) 50 (2012) 5430 50 95 104 819 8870 15000 27600
2020-08-11 09:45 11.33 667 27600 (2013) 50 (2012) 5430 50 95 104 819 8870 15000 27600
2020-08-11 08:45 11.34 672 27600 (2013) 50 (2012) 5430 50 95 104 819 8870 15000 27600
2020-08-11 07:45 11.34 672 27600 (2013) 50 (2012) 5430 50 95 104 819 8870 15000 27600
2020-08-11 06:45 11.33 667 27600 (2013) 50 (2012) 5430 50 95 104 819 8870 15000 27600
2020-08-11 05:45 11.31 657 27600 (2013) 50 (2012) 5430 50 95 104 819 8870 15000 27600
2020-08-11 04:45 11.28 643 27600 (2013) 50 (2012) 5430 50 95 104 819 8870 15000 27600
2020-08-11 03:45 11.24 623 27600 (2013) 50 (2012) 5430 50 95 104 819 8870 15000 27600
2020-08-11 02:45 11.21 609 27600 (2013) 50 (2012) 5430 50 95 104 819 8870 15000 27600
2020-08-11 01:45 11.22 613 27600 (2013) 50 (2012) 5430 50 95 104 819 8870 15000 27600
2020-08-11 00:45 11.26 633 27600 (2013) 50 (2012) 5430 50 95 104 819 8870 15000 27600
2020-08-10 23:45 11.31 657 22600 (2013) 50 (2011) 4850 50 50 89 971 8630 14100 22600
2020-08-10 22:45 11.36 683 22600 (2013) 50 (2011) 4850 50 50 89 971 8630 14100 22600
2020-08-10 21:45 11.41 709 22600 (2013) 50 (2011) 4850 50 50 89 971 8630 14100 22600
2020-08-10 20:45 11.46 735 22600 (2013) 50 (2011) 4850 50 50 89 971 8630 14100 22600
2020-08-10 19:45 11.49 751 22600 (2013) 50 (2011) 4850 50 50 89 971 8630 14100 22600
2020-08-10 18:45 11.54 779 22600 (2013) 50 (2011) 4850 50 50 89 971 8630 14100 22600
2020-08-10 17:45 11.55 784 22600 (2013) 50 (2011) 4850 50 50 89 971 8630 14100 22600
2020-08-10 16:45 11.53 773 22600 (2013) 50 (2011) 4850 50 50 89 971 8630 14100 22600
2020-08-10 15:45 11.55 784 22600 (2013) 50 (2011) 4850 50 50 89 971 8630 14100 22600
2020-08-10 14:45 11.62 824 22600 (2013) 50 (2011) 4850 50 50 89 971 8630 14100 22600
2020-08-10 13:45 11.61 818 22600 (2013) 50 (2011) 4850 50 50 89 971 8630 14100 22600
2020-08-10 12:45 11.63 830 22600 (2013) 50 (2011) 4850 50 50 89 971 8630 14100 22600
2020-08-10 11:45 11.67 854 22600 (2013) 50 (2011) 4850 50 50 89 971 8630 14100 22600
2020-08-10 10:45 11.69 865 22600 (2013) 50 (2011) 4850 50 50 89 971 8630 14100 22600
2020-08-10 09:45 11.73 890 22600 (2013) 50 (2011) 4850 50 50 89 971 8630 14100 22600
2020-08-10 08:45 11.73 890 22600 (2013) 50 (2011) 4850 50 50 89 971 8630 14100 22600
2020-08-10 07:45 11.72 883 22600 (2013) 50 (2011) 4850 50 50 89 971 8630 14100 22600
2020-08-10 06:45 11.70 871 22600 (2013) 50 (2011) 4850 50 50 89 971 8630 14100 22600
2020-08-10 05:45 11.67 854 22600 (2013) 50 (2011) 4850 50 50 89 971 8630 14100 22600
2020-08-10 04:45 11.62 824 22600 (2013) 50 (2011) 4850 50 50 89 971 8630 14100 22600
2020-08-10 03:45 11.58 801 22600 (2013) 50 (2011) 4850 50 50 89 971 8630 14100 22600
2020-08-10 02:45 11.54 779 22600 (2013) 50 (2011) 4850 50 50 89 971 8630 14100 22600
2020-08-10 01:45 11.47 740 22600 (2013) 50 (2011) 4850 50 50 89 971 8630 14100 22600
2020-08-10 00:45 11.39 698 22600 (2013) 50 (2011) 4850 50 50 89 971 8630 14100 22600
2020-08-09 23:45 11.28 643 19300 (2013) 50 (2011) 4570 50 50 90 1860 8340 13500 19300
2020-08-09 22:45 11.27 638 19300 (2013) 50 (2011) 4570 50 50 90 1860 8340 13500 19300
2020-08-09 21:45 11.24 623 19300 (2013) 50 (2011) 4570 50 50 90 1860 8340 13500 19300
2020-08-09 20:45 11.22 613 19300 (2013) 50 (2011) 4570 50 50 90 1860 8340 13500 19300
2020-08-09 19:45 11.27 638 19300 (2013) 50 (2011) 4570 50 50 90 1860 8340 13500 19300
2020-08-09 18:45 11.23 618 19300 (2013) 50 (2011) 4570 50 50 90 1860 8340 13500 19300
2020-08-09 17:45 11.24 623 19300 (2013) 50 (2011) 4570 50 50 90 1860 8340 13500 19300
2020-08-09 16:45 11.21 609 19300 (2013) 50 (2011) 4570 50 50 90 1860 8340 13500 19300
2020-08-09 15:45 11.24 623 19300 (2013) 50 (2011) 4570 50 50 90 1860 8340 13500 19300
2020-08-09 14:45 11.18 595 19300 (2013) 50 (2011) 4570 50 50 90 1860 8340 13500 19300
2020-08-09 13:45 11.16 585 19300 (2013) 50 (2011) 4570 50 50 90 1860 8340 13500 19300
2020-08-09 12:45 11.22 613 19300 (2013) 50 (2011) 4570 50 50 90 1860 8340 13500 19300
2020-08-09 11:45 11.26 633 19300 (2013) 50 (2011) 4570 50 50 90 1860 8340 13500 19300
2020-08-09 10:45 11.24 623 19300 (2013) 50 (2011) 4570 50 50 90 1860 8340 13500 19300
2020-08-09 09:45 11.22 613 19300 (2013) 50 (2011) 4570 50 50 90 1860 8340 13500 19300
2020-08-09 08:45 11.26 633 19300 (2013) 50 (2011) 4570 50 50 90 1860 8340 13500 19300
2020-08-09 07:45 11.25 628 19300 (2013) 50 (2011) 4570 50 50 90 1860 8340 13500 19300
2020-08-09 06:45 11.24 623 19300 (2013) 50 (2011) 4570 50 50 90 1860 8340 13500 19300
2020-08-09 05:45 11.23 618 19300 (2013) 50 (2011) 4570 50 50 90 1860 8340 13500 19300
2020-08-09 04:45 11.22 613 19300 (2013) 50 (2011) 4570 50 50 90 1860 8340 13500 19300
2020-08-09 03:45 11.22 613 19300 (2013) 50 (2011) 4570 50 50 90 1860 8340 13500 19300
2020-08-09 02:45 11.22 613 19300 (2013) 50 (2011) 4570 50 50 90 1860 8340 13500 19300
2020-08-09 01:45 11.20 604 19300 (2013) 50 (2011) 4570 50 50 90 1860 8340 13500 19300
2020-08-09 00:45 11.20 604 19300 (2013) 50 (2011) 4570 50 50 90 1860 8340 13500 19300
2020-08-08 23:45 11.21 609 16700 (2013) 50 (2012) 4600 50 122 131 662 9620 14800 16700
2020-08-08 22:45 11.24 623 16700 (2013) 50 (2012) 4600 50 122 131 662 9620 14800 16700
2020-08-08 21:45 11.27 638 16700 (2013) 50 (2012) 4600 50 122 131 662 9620 14800 16700
2020-08-08 20:45 11.29 647 16700 (2013) 50 (2012) 4600 50 122 131 662 9620 14800 16700
2020-08-08 19:45 11.31 657 16700 (2013) 50 (2012) 4600 50 122 131 662 9620 14800 16700
2020-08-08 18:45 11.29 647 16700 (2013) 50 (2012) 4600 50 122 131 662 9620 14800 16700
2020-08-08 17:45 11.35 678 16700 (2013) 50 (2012) 4600 50 122 131 662 9620 14800 16700
2020-08-08 16:45 11.35 678 16700 (2013) 50 (2012) 4600 50 122 131 662 9620 14800 16700
2020-08-08 15:45 11.35 678 16700 (2013) 50 (2012) 4600 50 122 131 662 9620 14800 16700
2020-08-08 14:45 11.34 672 16700 (2013) 50 (2012) 4600 50 122 131 662 9620 14800 16700
2020-08-08 13:45 11.32 662 16700 (2013) 50 (2012) 4600 50 122 131 662 9620 14800 16700
2020-08-08 12:45 11.28 643 16700 (2013) 50 (2012) 4600 50 122 131 662 9620 14800 16700
2020-08-08 11:45 11.25 628 16700 (2013) 50 (2012) 4600 50 122 131 662 9620 14800 16700
2020-08-08 10:45 11.22 613 16700 (2013) 50 (2012) 4600 50 122 131 662 9620 14800 16700
2020-08-08 09:45 11.21 609 16700 (2013) 50 (2012) 4600 50 122 131 662 9620 14800 16700
2020-08-08 08:45 11.22 613 16700 (2013) 50 (2012) 4600 50 122 131 662 9620 14800 16700
2020-08-08 07:45 11.20 604 16700 (2013) 50 (2012) 4600 50 122 131 662 9620 14800 16700
2020-08-08 06:45 11.14 576 16700 (2013) 50 (2012) 4600 50 122 131 662 9620 14800 16700
2020-08-08 05:45 11.13 572 16700 (2013) 50 (2012) 4600 50 122 131 662 9620 14800 16700
2020-08-08 04:45 11.14 576 16700 (2013) 50 (2012) 4600 50 122 131 662 9620 14800 16700
2020-08-08 03:45 11.15 581 16700 (2013) 50 (2012) 4600 50 122 131 662 9620 14800 16700
2020-08-08 02:45 11.11 564 16700 (2013) 50 (2012) 4600 50 122 131 662 9620 14800 16700
2020-08-08 01:45 11.10 559 16700 (2013) 50 (2012) 4600 50 122 131 662 9620 14800 16700
2020-08-08 00:45 11.17 590 16700 (2013) 50 (2012) 4600 50 122 131 662 9620 14800 16700

A total of 92 rows are displayed for years 2011 through 2019.